Marrowbone, Kentucky
Current Conditions -  °F | °C
As of 7:35 PM on Monday 20 Oct 2014 (Local Time) from KGLW Reporting Station
Clear Clear  
Wind Chill: 57°   Ceiling: Unl
Heat Index: 57°   Visibility: 10mi
Dew Point: 49°   Wind: 3mph
Humidity: 73%   Direction: 210°SSW
Pressure: 29.98"   Gusts: NA
Location:  36.83°N, 85.51°W
Report Text: KGLW 210035Z AUTO 21003KT 10SM CLR 14/09 A2998 RMK AO2 T01400092
Loading
Personal Weather Stations






























Interactive Weather Map
Tropical Storm Tracking
New forecast layout! Learn more

10-Day Weather Forecast

Advertisements
Track Severe Weather on mobile